sensor_id;sensor_type;location;lat;lon;timestamp;temperature;humidity
74178;DHT22;62540;48.456;-4.456;2023-03-23T00:01:22;13.43;77.96
74178;DHT22;62540;48.456;-4.456;2023-03-23T00:03:51;13.41;77.84
74178;DHT22;62540;48.456;-4.456;2023-03-23T00:06:17;13.40;77.89
74178;DHT22;62540;48.456;-4.456;2023-03-23T00:08:45;13.36;77.80
74178;DHT22;62540;48.456;-4.456;2023-03-23T00:11:16;13.33;77.80
74178;DHT22;62540;48.456;-4.456;2023-03-23T00:13:44;13.28;77.78
74178;DHT22;62540;48.456;-4.456;2023-03-23T00:16:11;13.27;77.74
74178;DHT22;62540;48.456;-4.456;2023-03-23T00:18:54;13.26;77.53
74178;DHT22;62540;48.456;-4.456;2023-03-23T00:21:21;13.28;77.30
74178;DHT22;62540;48.456;-4.456;2023-03-23T00:23:53;13.20;77.29
74178;DHT22;62540;48.456;-4.456;2023-03-23T00:26:18;13.17;77.42
74178;DHT22;62540;48.456;-4.456;2023-03-23T00:28:45;13.13;77.41
74178;DHT22;62540;48.456;-4.456;2023-03-23T00:31:12;13.11;77.71
74178;DHT22;62540;48.456;-4.456;2023-03-23T00:33:39;13.04;78.02
74178;DHT22;62540;48.456;-4.456;2023-03-23T00:36:06;13.02;78.09
74178;DHT22;62540;48.456;-4.456;2023-03-23T00:38:34;13.04;78.01
74178;DHT22;62540;48.456;-4.456;2023-03-23T00:41:00;13.10;77.86
74178;DHT22;62540;48.456;-4.456;2023-03-23T00:43:29;13.03;77.81
74178;DHT22;62540;48.456;-4.456;2023-03-23T00:45:55;13.04;77.66
74178;DHT22;62540;48.456;-4.456;2023-03-23T00:48:24;13.09;77.50
74178;DHT22;62540;48.456;-4.456;2023-03-23T00:50:51;13.03;77.48
74178;DHT22;62540;48.456;-4.456;2023-03-23T00:53:17;13.06;77.58
74178;DHT22;62540;48.456;-4.456;2023-03-23T00:55:44;13.02;77.62
74178;DHT22;62540;48.456;-4.456;2023-03-23T00:58:11;13.03;77.38
74178;DHT22;62540;48.456;-4.456;2023-03-23T01:00:36;13.00;77.18
74178;DHT22;62540;48.456;-4.456;2023-03-23T01:03:03;12.97;77.23
74178;DHT22;62540;48.456;-4.456;2023-03-23T01:05:28;12.99;77.22
74178;DHT22;62540;48.456;-4.456;2023-03-23T01:07:58;12.99;77.10
74178;DHT22;62540;48.456;-4.456;2023-03-23T01:10:24;12.99;77.14
74178;DHT22;62540;48.456;-4.456;2023-03-23T01:12:52;12.97;77.16
74178;DHT22;62540;48.456;-4.456;2023-03-23T01:15:21;13.00;77.14
74178;DHT22;62540;48.456;-4.456;2023-03-23T01:17:47;12.99;77.19
74178;DHT22;62540;48.456;-4.456;2023-03-23T01:20:14;12.96;77.30
74178;DHT22;62540;48.456;-4.456;2023-03-23T01:22:41;13.02;77.23
74178;DHT22;62540;48.456;-4.456;2023-03-23T01:25:08;12.97;77.06
74178;DHT22;62540;48.456;-4.456;2023-03-23T01:27:34;12.97;77.22
74178;DHT22;62540;48.456;-4.456;2023-03-23T01:29:59;13.00;77.19
74178;DHT22;62540;48.456;-4.456;2023-03-23T01:32:25;13.02;77.25
74178;DHT22;62540;48.456;-4.456;2023-03-23T01:34:50;12.96;77.32
74178;DHT22;62540;48.456;-4.456;2023-03-23T01:37:16;12.96;77.55
74178;DHT22;62540;48.456;-4.456;2023-03-23T01:39:41;13.00;77.58
74178;DHT22;62540;48.456;-4.456;2023-03-23T01:42:09;12.93;77.71
74178;DHT22;62540;48.456;-4.456;2023-03-23T01:47:00;12.99;77.96
74178;DHT22;62540;48.456;-4.456;2023-03-23T01:49:39;13.00;78.12
74178;DHT22;62540;48.456;-4.456;2023-03-23T01:52:16;12.99;78.24
74178;DHT22;62540;48.456;-4.456;2023-03-23T01:54:47;13.02;78.25
74178;DHT22;62540;48.456;-4.456;2023-03-23T01:57:19;13.02;78.41
74178;DHT22;62540;48.456;-4.456;2023-03-23T01:59:49;12.99;78.60
74178;DHT22;62540;48.456;-4.456;2023-03-23T02:02:18;12.99;78.81
74178;DHT22;62540;48.456;-4.456;2023-03-23T02:04:44;13.03;78.63
74178;DHT22;62540;48.456;-4.456;2023-03-23T02:07:12;13.10;78.65
74178;DHT22;62540;48.456;-4.456;2023-03-23T02:09:39;13.04;78.77
74178;DHT22;62540;48.456;-4.456;2023-03-23T02:12:04;13.06;78.73
74178;DHT22;62540;48.456;-4.456;2023-03-23T02:14:30;13.07;78.77
74178;DHT22;62540;48.456;-4.456;2023-03-23T02:17:09;13.06;78.72
74178;DHT22;62540;48.456;-4.456;2023-03-23T02:19:45;13.10;78.63
74178;DHT22;62540;48.456;-4.456;2023-03-23T02:31:21;13.10;78.54
74178;DHT22;62540;48.456;-4.456;2023-03-23T02:33:57;13.13;78.34
74178;DHT22;62540;48.456;-4.456;2023-03-23T02:36:30;13.14;78.25
74178;DHT22;62540;48.456;-4.456;2023-03-23T02:39:15;13.13;78.36
74178;DHT22;62540;48.456;-4.456;2023-03-23T02:41:48;13.17;78.58
74178;DHT22;62540;48.456;-4.456;2023-03-23T02:44:15;13.14;78.84
74178;DHT22;62540;48.456;-4.456;2023-03-23T02:46:42;13.19;78.90
74178;DHT22;62540;48.456;-4.456;2023-03-23T02:49:11;13.26;78.81
74178;DHT22;62540;48.456;-4.456;2023-03-23T02:51:38;13.23;78.66
74178;DHT22;62540;48.456;-4.456;2023-03-23T02:54:04;13.26;78.60
74178;DHT22;62540;48.456;-4.456;2023-03-23T02:56:31;13.27;78.54
74178;DHT22;62540;48.456;-4.456;2023-03-23T02:58:58;13.31;78.71
74178;DHT22;62540;48.456;-4.456;2023-03-23T03:03:58;13.31;78.54
74178;DHT22;62540;48.456;-4.456;2023-03-23T03:06:47;13.30;78.50
74178;DHT22;62540;48.456;-4.456;2023-03-23T03:12:08;13.30;78.31
74178;DHT22;62540;48.456;-4.456;2023-03-23T03:14:45;13.31;78.37
74178;DHT22;62540;48.456;-4.456;2023-03-23T03:17:25;13.24;78.55
74178;DHT22;62540;48.456;-4.456;2023-03-23T03:19:56;13.27;78.43
74178;DHT22;62540;48.456;-4.456;2023-03-23T03:22:23;13.24;78.29
74178;DHT22;62540;48.456;-4.456;2023-03-23T03:24:55;13.26;78.12
74178;DHT22;62540;48.456;-4.456;2023-03-23T03:27:22;13.23;78.02
74178;DHT22;62540;48.456;-4.456;2023-03-23T03:29:53;13.20;77.81
74178;DHT22;62540;48.456;-4.456;2023-03-23T03:32:23;13.17;77.88
74178;DHT22;62540;48.456;-4.456;2023-03-23T03:34:50;13.19;77.85
74178;DHT22;62540;48.456;-4.456;2023-03-23T03:37:16;13.19;77.95
74178;DHT22;62540;48.456;-4.456;2023-03-23T03:39:42;13.14;78.22
74178;DHT22;62540;48.456;-4.456;2023-03-23T03:42:07;13.14;78.37
74178;DHT22;62540;48.456;-4.456;2023-03-23T03:44:33;13.16;78.52
74178;DHT22;62540;48.456;-4.456;2023-03-23T03:46:59;13.14;78.63
74178;DHT22;62540;48.456;-4.456;2023-03-23T03:49:25;13.17;78.68
74178;DHT22;62540;48.456;-4.456;2023-03-23T03:51:51;13.11;78.86
74178;DHT22;62540;48.456;-4.456;2023-03-23T03:54:17;13.14;78.69
74178;DHT22;62540;48.456;-4.456;2023-03-23T03:56:43;13.14;78.58
74178;DHT22;62540;48.456;-4.456;2023-03-23T03:59:09;13.14;78.45
74178;DHT22;62540;48.456;-4.456;2023-03-23T04:01:37;13.17;78.34
74178;DHT22;62540;48.456;-4.456;2023-03-23T04:04:03;13.10;78.27
74178;DHT22;62540;48.456;-4.456;2023-03-23T04:06:29;13.10;78.35
74178;DHT22;62540;48.456;-4.456;2023-03-23T04:08:56;13.10;78.25
74178;DHT22;62540;48.456;-4.456;2023-03-23T04:11:24;13.07;78.48
74178;DHT22;62540;48.456;-4.456;2023-03-23T04:13:51;13.00;78.75
74178;DHT22;62540;48.456;-4.456;2023-03-23T04:16:16;13.06;78.80
74178;DHT22;62540;48.456;-4.456;2023-03-23T04:18:42;13.04;78.79
74178;DHT22;62540;48.456;-4.456;2023-03-23T04:21:08;13.07;79.01
74178;DHT22;62540;48.456;-4.456;2023-03-23T04:23:34;13.09;78.99
74178;DHT22;62540;48.456;-4.456;2023-03-23T04:26:01;13.03;79.35
74178;DHT22;62540;48.456;-4.456;2023-03-23T04:28:28;13.00;79.70
74178;DHT22;62540;48.456;-4.456;2023-03-23T04:30:54;13.04;79.84
74178;DHT22;62540;48.456;-4.456;2023-03-23T04:33:22;13.07;79.81
74178;DHT22;62540;48.456;-4.456;2023-03-23T04:35:53;13.04;79.83
74178;DHT22;62540;48.456;-4.456;2023-03-23T04:38:20;13.04;80.10
74178;DHT22;62540;48.456;-4.456;2023-03-23T04:40:47;13.09;80.13
74178;DHT22;62540;48.456;-4.456;2023-03-23T04:43:13;13.14;80.18
74178;DHT22;62540;48.456;-4.456;2023-03-23T04:45:40;13.19;80.02
74178;DHT22;62540;48.456;-4.456;2023-03-23T04:48:10;13.21;80.02
74178;DHT22;62540;48.456;-4.456;2023-03-23T04:50:36;13.16;80.12
74178;DHT22;62540;48.456;-4.456;2023-03-23T04:53:03;13.20;80.21
74178;DHT22;62540;48.456;-4.456;2023-03-23T04:55:34;13.19;80.23
74178;DHT22;62540;48.456;-4.456;2023-03-23T04:58:03;13.21;79.96
74178;DHT22;62540;48.456;-4.456;2023-03-23T05:00:29;13.21;79.80
74178;DHT22;62540;48.456;-4.456;2023-03-23T05:02:55;13.13;79.63
74178;DHT22;62540;48.456;-4.456;2023-03-23T05:05:22;13.20;79.78
74178;DHT22;62540;48.456;-4.456;2023-03-23T05:07:49;13.23;79.59
74178;DHT22;62540;48.456;-4.456;2023-03-23T05:10:15;13.16;80.04
74178;DHT22;62540;48.456;-4.456;2023-03-23T05:12:42;13.26;79.94
74178;DHT22;62540;48.456;-4.456;2023-03-23T05:15:09;13.26;79.76
74178;DHT22;62540;48.456;-4.456;2023-03-23T05:17:36;13.23;79.50
74178;DHT22;62540;48.456;-4.456;2023-03-23T05:20:03;13.28;79.54
74178;DHT22;62540;48.456;-4.456;2023-03-23T05:22:31;13.28;79.46
74178;DHT22;62540;48.456;-4.456;2023-03-23T05:25:00;13.31;79.34
74178;DHT22;62540;48.456;-4.456;2023-03-23T05:27:28;13.26;79.26
74178;DHT22;62540;48.456;-4.456;2023-03-23T05:29:56;13.34;79.30
74178;DHT22;62540;48.456;-4.456;2023-03-23T05:32:26;13.36;79.18
74178;DHT22;62540;48.456;-4.456;2023-03-23T05:35:01;13.30;78.78
74178;DHT22;62540;48.456;-4.456;2023-03-23T05:37:28;13.34;78.84
74178;DHT22;62540;48.456;-4.456;2023-03-23T05:39:59;13.36;78.67
74178;DHT22;62540;48.456;-4.456;2023-03-23T05:42:35;13.31;78.61
74178;DHT22;62540;48.456;-4.456;2023-03-23T05:45:02;13.34;78.39
74178;DHT22;62540;48.456;-4.456;2023-03-23T05:47:28;13.31;78.29
74178;DHT22;62540;48.456;-4.456;2023-03-23T05:49:54;13.31;78.57
74178;DHT22;62540;48.456;-4.456;2023-03-23T05:52:19;13.33;78.52
74178;DHT22;62540;48.456;-4.456;2023-03-23T05:54:45;13.34;78.49
74178;DHT22;62540;48.456;-4.456;2023-03-23T05:57:11;13.31;78.43
74178;DHT22;62540;48.456;-4.456;2023-03-23T05:59:36;13.30;78.42
74178;DHT22;62540;48.456;-4.456;2023-03-23T06:02:02;13.30;78.50
74178;DHT22;62540;48.456;-4.456;2023-03-23T06:04:28;13.28;78.63
74178;DHT22;62540;48.456;-4.456;2023-03-23T06:06:53;13.33;78.52
74178;DHT22;62540;48.456;-4.456;2023-03-23T06:09:19;13.31;78.50
74178;DHT22;62540;48.456;-4.456;2023-03-23T06:11:44;13.30;78.51
74178;DHT22;62540;48.456;-4.456;2023-03-23T06:14:10;13.33;78.50
74178;DHT22;62540;48.456;-4.456;2023-03-23T06:16:36;13.33;78.60
74178;DHT22;62540;48.456;-4.456;2023-03-23T06:19:02;13.31;78.56
74178;DHT22;62540;48.456;-4.456;2023-03-23T06:21:33;13.31;78.63
74178;DHT22;62540;48.456;-4.456;2023-03-23T06:23:59;13.34;78.65
74178;DHT22;62540;48.456;-4.456;2023-03-23T06:26:30;13.30;78.73
74178;DHT22;62540;48.456;-4.456;2023-03-23T06:28:57;13.34;78.72
74178;DHT22;62540;48.456;-4.456;2023-03-23T06:31:24;13.30;78.71
74178;DHT22;62540;48.456;-4.456;2023-03-23T06:33:50;13.33;78.69
74178;DHT22;62540;48.456;-4.456;2023-03-23T06:36:16;13.36;78.66
74178;DHT22;62540;48.456;-4.456;2023-03-23T06:38:42;13.34;78.75
74178;DHT22;62540;48.456;-4.456;2023-03-23T06:41:07;13.30;78.94
74178;DHT22;62540;48.456;-4.456;2023-03-23T06:43:34;13.28;79.10
74178;DHT22;62540;48.456;-4.456;2023-03-23T06:46:01;13.28;79.11
74178;DHT22;62540;48.456;-4.456;2023-03-23T06:48:26;13.33;79.09
74178;DHT22;62540;48.456;-4.456;2023-03-23T06:50:52;13.34;79.04
74178;DHT22;62540;48.456;-4.456;2023-03-23T06:53:17;13.40;78.94
74178;DHT22;62540;48.456;-4.456;2023-03-23T06:55:45;13.39;78.80
74178;DHT22;62540;48.456;-4.456;2023-03-23T06:58:11;13.37;78.98
74178;DHT22;62540;48.456;-4.456;2023-03-23T07:00:37;13.44;78.91
74178;DHT22;62540;48.456;-4.456;2023-03-23T07:03:02;13.44;78.78
74178;DHT22;62540;48.456;-4.456;2023-03-23T07:05:29;13.48;78.89
74178;DHT22;62540;48.456;-4.456;2023-03-23T07:07:55;13.51;78.81
74178;DHT22;62540;48.456;-4.456;2023-03-23T07:10:21;13.50;78.81
74178;DHT22;62540;48.456;-4.456;2023-03-23T07:12:46;13.53;79.03
74178;DHT22;62540;48.456;-4.456;2023-03-23T07:15:12;13.54;79.03
74178;DHT22;62540;48.456;-4.456;2023-03-23T07:17:38;13.55;78.97
74178;DHT22;62540;48.456;-4.456;2023-03-23T07:20:05;13.58;78.79
74178;DHT22;62540;48.456;-4.456;2023-03-23T07:22:31;13.60;78.98
74178;DHT22;62540;48.456;-4.456;2023-03-23T07:24:57;13.57;79.02
74178;DHT22;62540;48.456;-4.456;2023-03-23T07:27:22;13.58;79.10
74178;DHT22;62540;48.456;-4.456;2023-03-23T07:29:48;13.64;78.70
74178;DHT22;62540;48.456;-4.456;2023-03-23T07:32:14;13.68;78.54
74178;DHT22;62540;48.456;-4.456;2023-03-23T07:34:39;13.71;78.53
74178;DHT22;62540;48.456;-4.456;2023-03-23T07:37:06;13.77;78.29
74178;DHT22;62540;48.456;-4.456;2023-03-23T07:39:33;13.79;78.03
74178;DHT22;62540;48.456;-4.456;2023-03-23T07:41:58;13.81;77.93
74178;DHT22;62540;48.456;-4.456;2023-03-23T07:44:24;13.81;77.87
74178;DHT22;62540;48.456;-4.456;2023-03-23T07:46:49;13.86;77.56
74178;DHT22;62540;48.456;-4.456;2023-03-23T07:49:16;13.85;77.59
74178;DHT22;62540;48.456;-4.456;2023-03-23T07:51:42;13.92;77.65
74178;DHT22;62540;48.456;-4.456;2023-03-23T07:54:07;13.92;77.44
74178;DHT22;62540;48.456;-4.456;2023-03-23T07:56:34;13.90;77.40
74178;DHT22;62540;48.456;-4.456;2023-03-23T07:59:00;13.94;77.44
74178;DHT22;62540;48.456;-4.456;2023-03-23T08:01:26;13.88;77.39
74178;DHT22;62540;48.456;-4.456;2023-03-23T08:03:51;13.95;77.42
74178;DHT22;62540;48.456;-4.456;2023-03-23T08:06:20;13.99;77.04
74178;DHT22;62540;48.456;-4.456;2023-03-23T08:08:46;14.06;76.91
74178;DHT22;62540;48.456;-4.456;2023-03-23T08:11:11;14.04;77.07
74178;DHT22;62540;48.456;-4.456;2023-03-23T08:13:38;14.05;76.91
74178;DHT22;62540;48.456;-4.456;2023-03-23T08:16:04;14.06;76.74
74178;DHT22;62540;48.456;-4.456;2023-03-23T08:18:30;14.06;76.95
74178;DHT22;62540;48.456;-4.456;2023-03-23T08:20:57;14.05;76.93
74178;DHT22;62540;48.456;-4.456;2023-03-23T08:23:23;14.12;77.01
74178;DHT22;62540;48.456;-4.456;2023-03-23T08:25:48;14.12;76.66
74178;DHT22;62540;48.456;-4.456;2023-03-23T08:28:14;14.09;76.99
74178;DHT22;62540;48.456;-4.456;2023-03-23T08:30:40;14.13;77.25
74178;DHT22;62540;48.456;-4.456;2023-03-23T08:33:06;14.13;76.98
74178;DHT22;62540;48.456;-4.456;2023-03-23T08:35:33;14.22;76.82
74178;DHT22;62540;48.456;-4.456;2023-03-23T08:37:58;14.27;76.64
74178;DHT22;62540;48.456;-4.456;2023-03-23T08:40:24;14.39;76.73
74178;DHT22;62540;48.456;-4.456;2023-03-23T08:42:51;14.48;76.46
74178;DHT22;62540;48.456;-4.456;2023-03-23T08:45:22;14.50;76.02
74178;DHT22;62540;48.456;-4.456;2023-03-23T08:47:48;14.54;75.81
74178;DHT22;62540;48.456;-4.456;2023-03-23T08:50:19;14.61;75.99
74178;DHT22;62540;48.456;-4.456;2023-03-23T08:52:45;14.74;75.79
74178;DHT22;62540;48.456;-4.456;2023-03-23T08:55:11;14.80;75.46
74178;DHT22;62540;48.456;-4.456;2023-03-23T08:57:37;14.87;75.36
74178;DHT22;62540;48.456;-4.456;2023-03-23T09:00:05;14.87;75.24
74178;DHT22;62540;48.456;-4.456;2023-03-23T09:02:40;14.84;75.06
74178;DHT22;62540;48.456;-4.456;2023-03-23T09:05:06;14.88;75.18
74178;DHT22;62540;48.456;-4.456;2023-03-23T09:07:32;14.88;74.98
74178;DHT22;62540;48.456;-4.456;2023-03-23T09:09:58;14.87;75.15
74178;DHT22;62540;48.456;-4.456;2023-03-23T09:12:23;14.85;74.88
74178;DHT22;62540;48.456;-4.456;2023-03-23T09:14:49;14.88;74.73
74178;DHT22;62540;48.456;-4.456;2023-03-23T09:17:14;14.89;74.94
74178;DHT22;62540;48.456;-4.456;2023-03-23T09:19:39;14.95;74.98
74178;DHT22;62540;48.456;-4.456;2023-03-23T09:22:06;14.98;74.77
74178;DHT22;62540;48.456;-4.456;2023-03-23T09:24:33;14.95;74.51
74178;DHT22;62540;48.456;-4.456;2023-03-23T09:26:58;14.89;74.61
74178;DHT22;62540;48.456;-4.456;2023-03-23T09:29:25;14.84;74.72
74178;DHT22;62540;48.456;-4.456;2023-03-23T09:31:51;14.87;74.53
74178;DHT22;62540;48.456;-4.456;2023-03-23T09:34:17;14.85;74.77
74178;DHT22;62540;48.456;-4.456;2023-03-23T09:36:43;14.81;74.71
74178;DHT22;62540;48.456;-4.456;2023-03-23T09:39:09;14.83;75.02
74178;DHT22;62540;48.456;-4.456;2023-03-23T09:42:31;14.88;75.45
74178;DHT22;62540;48.456;-4.456;2023-03-23T09:44:50;14.84;75.38
74178;DHT22;62540;48.456;-4.456;2023-03-23T09:50:27;14.83;75.36
74178;DHT22;62540;48.456;-4.456;2023-03-23T09:53:01;14.83;75.30
74178;DHT22;62540;48.456;-4.456;2023-03-23T09:55:28;14.85;75.27
74178;DHT22;62540;48.456;-4.456;2023-03-23T09:58:10;14.78;74.63
74178;DHT22;62540;48.456;-4.456;2023-03-23T10:00:43;14.85;75.28
74178;DHT22;62540;48.456;-4.456;2023-03-23T10:03:20;14.85;74.86
74178;DHT22;62540;48.456;-4.456;2023-03-23T10:08:26;14.85;75.19
74178;DHT22;62540;48.456;-4.456;2023-03-23T10:11:17;14.88;75.22
74178;DHT22;62540;48.456;-4.456;2023-03-23T10:16:33;14.85;75.57
74178;DHT22;62540;48.456;-4.456;2023-03-23T10:19:22;14.84;75.55
74178;DHT22;62540;48.456;-4.456;2023-03-23T10:21:51;14.84;75.51
74178;DHT22;62540;48.456;-4.456;2023-03-23T10:24:21;14.78;75.54
74178;DHT22;62540;48.456;-4.456;2023-03-23T10:27:18;14.83;75.54
74178;DHT22;62540;48.456;-4.456;2023-03-23T10:29:58;14.81;75.53
74178;DHT22;62540;48.456;-4.456;2023-03-23T10:35:26;14.83;75.43
74178;DHT22;62540;48.456;-4.456;2023-03-23T10:37:59;14.84;75.10
74178;DHT22;62540;48.456;-4.456;2023-03-23T10:40:28;14.75;75.11
74178;DHT22;62540;48.456;-4.456;2023-03-23T10:42:55;14.83;75.44
74178;DHT22;62540;48.456;-4.456;2023-03-23T10:45:26;14.85;75.63
74178;DHT22;62540;48.456;-4.456;2023-03-23T10:48:09;14.97;76.01
74178;DHT22;62540;48.456;-4.456;2023-03-23T10:50:37;14.97;75.91
74178;DHT22;62540;48.456;-4.456;2023-03-23T10:53:16;14.99;75.80
74178;DHT22;62540;48.456;-4.456;2023-03-23T10:55:43;14.99;75.41
74178;DHT22;62540;48.456;-4.456;2023-03-23T10:58:23;14.92;76.18
74178;DHT22;62540;48.456;-4.456;2023-03-23T11:00:49;14.89;76.55
74178;DHT22;62540;48.456;-4.456;2023-03-23T11:05:53;14.88;76.57
74178;DHT22;62540;48.456;-4.456;2023-03-23T11:08:21;14.89;76.44
74178;DHT22;62540;48.456;-4.456;2023-03-23T11:11:20;14.87;76.71
74178;DHT22;62540;48.456;-4.456;2023-03-23T11:13:43;14.91;76.44
74178;DHT22;62540;48.456;-4.456;2023-03-23T11:16:10;14.89;76.53
74178;DHT22;62540;48.456;-4.456;2023-03-23T11:18:41;14.89;76.71
74178;DHT22;62540;48.456;-4.456;2023-03-23T11:21:11;14.85;76.73
74178;DHT22;62540;48.456;-4.456;2023-03-23T11:23:43;14.77;76.99
74178;DHT22;62540;48.456;-4.456;2023-03-23T11:28:42;14.64;77.38
74178;DHT22;62540;48.456;-4.456;2023-03-23T11:31:08;14.61;77.47
74178;DHT22;62540;48.456;-4.456;2023-03-23T11:33:48;14.61;77.49
74178;DHT22;62540;48.456;-4.456;2023-03-23T11:36:16;14.54;77.63
74178;DHT22;62540;48.456;-4.456;2023-03-23T11:38:43;14.56;77.89
74178;DHT22;62540;48.456;-4.456;2023-03-23T11:41:11;14.51;78.28
74178;DHT22;62540;48.456;-4.456;2023-03-23T11:43:40;14.44;78.68
74178;DHT22;62540;48.456;-4.456;2023-03-23T11:49:00;14.25;79.02
74178;DHT22;62540;48.456;-4.456;2023-03-23T11:51:31;14.30;79.14
74178;DHT22;62540;48.456;-4.456;2023-03-23T11:56:34;14.30;79.42
74178;DHT22;62540;48.456;-4.456;2023-03-23T11:59:00;14.23;79.72
74178;DHT22;62540;48.456;-4.456;2023-03-23T12:01:47;14.22;79.73
74178;DHT22;62540;48.456;-4.456;2023-03-23T12:09:47;14.06;79.55
74178;DHT22;62540;48.456;-4.456;2023-03-23T12:12:35;14.09;79.21
74178;DHT22;62540;48.456;-4.456;2023-03-23T12:23:40;13.95;80.13
74178;DHT22;62540;48.456;-4.456;2023-03-23T12:26:26;13.95;79.46
74178;DHT22;62540;48.456;-4.456;2023-03-23T12:32:16;13.86;78.61
74178;DHT22;62540;48.456;-4.456;2023-03-23T12:43:06;13.86;77.69
74178;DHT22;62540;48.456;-4.456;2023-03-23T12:48:42;13.88;78.47
74178;DHT22;62540;48.456;-4.456;2023-03-23T12:54:03;13.88;78.39
74178;DHT22;62540;48.456;-4.456;2023-03-23T12:56:57;13.86;78.45
74178;DHT22;62540;48.456;-4.456;2023-03-23T12:59:36;13.81;78.29
74178;DHT22;62540;48.456;-4.456;2023-03-23T13:02:19;13.77;78.55
74178;DHT22;62540;48.456;-4.456;2023-03-23T13:04:55;13.71;78.52
74178;DHT22;62540;48.456;-4.456;2023-03-23T13:07:28;13.68;79.31
74178;DHT22;62540;48.456;-4.456;2023-03-23T13:10:22;13.61;79.15
74178;DHT22;62540;48.456;-4.456;2023-03-23T13:12:49;13.58;79.00
74178;DHT22;62540;48.456;-4.456;2023-03-23T13:23:37;13.41;80.09
74178;DHT22;62540;48.456;-4.456;2023-03-23T13:26:06;13.39;80.12
74178;DHT22;62540;48.456;-4.456;2023-03-23T13:28:44;13.30;80.70
74178;DHT22;62540;48.456;-4.456;2023-03-23T13:31:14;13.26;80.76
74178;DHT22;62540;48.456;-4.456;2023-03-23T13:33:46;13.23;80.48
74178;DHT22;62540;48.456;-4.456;2023-03-23T13:36:15;13.19;80.39
74178;DHT22;62540;48.456;-4.456;2023-03-23T13:38:49;13.20;80.47
74178;DHT22;62540;48.456;-4.456;2023-03-23T13:41:17;13.26;80.55
74178;DHT22;62540;48.456;-4.456;2023-03-23T13:43:45;13.23;80.69
74178;DHT22;62540;48.456;-4.456;2023-03-23T13:46:29;13.21;81.17
74178;DHT22;62540;48.456;-4.456;2023-03-23T13:49:16;13.24;81.13
74178;DHT22;62540;48.456;-4.456;2023-03-23T13:54:15;13.28;81.38
74178;DHT22;62540;48.456;-4.456;2023-03-23T14:01:56;13.30;82.23
74178;DHT22;62540;48.456;-4.456;2023-03-23T14:04:23;13.39;81.91
74178;DHT22;62540;48.456;-4.456;2023-03-23T14:06:56;13.44;81.82
74178;DHT22;62540;48.456;-4.456;2023-03-23T14:09:27;13.44;81.91
74178;DHT22;62540;48.456;-4.456;2023-03-23T14:12:00;13.40;81.80
74178;DHT22;62540;48.456;-4.456;2023-03-23T14:14:38;13.39;81.72
74178;DHT22;62540;48.456;-4.456;2023-03-23T14:17:16;13.43;81.88
74178;DHT22;62540;48.456;-4.456;2023-03-23T14:19:47;13.40;81.29
74178;DHT22;62540;48.456;-4.456;2023-03-23T14:22:23;13.40;81.63
74178;DHT22;62540;48.456;-4.456;2023-03-23T14:24:49;13.47;81.13
74178;DHT22;62540;48.456;-4.456;2023-03-23T14:27:18;13.43;80.72
74178;DHT22;62540;48.456;-4.456;2023-03-23T14:29:44;13.31;80.77
74178;DHT22;62540;48.456;-4.456;2023-03-23T14:32:14;13.34;80.51
74178;DHT22;62540;48.456;-4.456;2023-03-23T14:34:40;13.40;80.40
74178;DHT22;62540;48.456;-4.456;2023-03-23T14:37:13;13.37;80.07
74178;DHT22;62540;48.456;-4.456;2023-03-23T14:39:44;13.39;80.05
74178;DHT22;62540;48.456;-4.456;2023-03-23T14:42:14;13.47;79.46
74178;DHT22;62540;48.456;-4.456;2023-03-23T14:44:45;13.47;78.75
74178;DHT22;62540;48.456;-4.456;2023-03-23T14:47:25;13.40;78.31
74178;DHT22;62540;48.456;-4.456;2023-03-23T14:49:54;13.36;77.49
74178;DHT22;62540;48.456;-4.456;2023-03-23T14:52:23;13.28;77.54
74178;DHT22;62540;48.456;-4.456;2023-03-23T14:54:49;13.28;77.71
74178;DHT22;62540;48.456;-4.456;2023-03-23T14:57:32;13.33;77.44
74178;DHT22;62540;48.456;-4.456;2023-03-23T14:59:58;13.28;77.69
74178;DHT22;62540;48.456;-4.456;2023-03-23T15:02:35;13.27;77.97
74178;DHT22;62540;48.456;-4.456;2023-03-23T15:05:05;13.31;78.18
74178;DHT22;62540;48.456;-4.456;2023-03-23T15:07:36;13.30;78.48
74178;DHT22;62540;48.456;-4.456;2023-03-23T15:10:07;13.26;79.09
74178;DHT22;62540;48.456;-4.456;2023-03-23T15:12:34;13.24;79.28
74178;DHT22;62540;48.456;-4.456;2023-03-23T15:15:03;13.27;79.47
74178;DHT22;62540;48.456;-4.456;2023-03-23T15:17:37;13.31;79.56
74178;DHT22;62540;48.456;-4.456;2023-03-23T15:22:51;13.23;80.09
74178;DHT22;62540;48.456;-4.456;2023-03-23T15:25:30;13.33;80.16
74178;DHT22;62540;48.456;-4.456;2023-03-23T15:28:06;13.39;80.23
74178;DHT22;62540;48.456;-4.456;2023-03-23T15:30:35;13.40;80.36
74178;DHT22;62540;48.456;-4.456;2023-03-23T15:33:10;13.46;80.43
74178;DHT22;62540;48.456;-4.456;2023-03-23T15:35:39;13.47;80.49
74178;DHT22;62540;48.456;-4.456;2023-03-23T15:40:44;13.53;80.78
74178;DHT22;62540;48.456;-4.456;2023-03-23T15:43:19;13.53;80.93
74178;DHT22;62540;48.456;-4.456;2023-03-23T15:51:21;13.57;80.97
74178;DHT22;62540;48.456;-4.456;2023-03-23T15:53:50;13.50;80.78
74178;DHT22;62540;48.456;-4.456;2023-03-23T15:56:16;13.55;80.80
74178;DHT22;62540;48.456;-4.456;2023-03-23T15:58:42;13.55;81.06
74178;DHT22;62540;48.456;-4.456;2023-03-23T16:01:12;13.58;80.83
74178;DHT22;62540;48.456;-4.456;2023-03-23T16:04:00;13.60;80.81
74178;DHT22;62540;48.456;-4.456;2023-03-23T16:06:25;13.60;81.18
74178;DHT22;62540;48.456;-4.456;2023-03-23T16:08:55;13.61;80.88
74178;DHT22;62540;48.456;-4.456;2023-03-23T16:11:21;13.61;80.73
74178;DHT22;62540;48.456;-4.456;2023-03-23T16:13:47;13.58;80.87
74178;DHT22;62540;48.456;-4.456;2023-03-23T16:16:15;13.58;80.84
74178;DHT22;62540;48.456;-4.456;2023-03-23T16:18:42;13.60;80.83
74178;DHT22;62540;48.456;-4.456;2023-03-23T16:21:07;13.62;80.52
74178;DHT22;62540;48.456;-4.456;2023-03-23T16:23:33;13.65;80.35
74178;DHT22;62540;48.456;-4.456;2023-03-23T16:25:58;13.67;80.12
74178;DHT22;62540;48.456;-4.456;2023-03-23T16:28:24;13.65;80.12
74178;DHT22;62540;48.456;-4.456;2023-03-23T16:30:49;13.72;80.08
74178;DHT22;62540;48.456;-4.456;2023-03-23T16:33:14;13.67;79.89
74178;DHT22;62540;48.456;-4.456;2023-03-23T16:35:40;13.65;80.03
74178;DHT22;62540;48.456;-4.456;2023-03-23T16:38:06;13.71;80.01
74178;DHT22;62540;48.456;-4.456;2023-03-23T16:40:32;13.64;79.52
74178;DHT22;62540;48.456;-4.456;2023-03-23T16:42:57;13.60;79.37
74178;DHT22;62540;48.456;-4.456;2023-03-23T16:45:23;13.54;78.80
74178;DHT22;62540;48.456;-4.456;2023-03-23T16:47:50;13.46;78.77
74178;DHT22;62540;48.456;-4.456;2023-03-23T16:50:17;13.39;78.96
74178;DHT22;62540;48.456;-4.456;2023-03-23T16:52:45;13.33;78.61
74178;DHT22;62540;48.456;-4.456;2023-03-23T16:55:12;13.33;78.86
74178;DHT22;62540;48.456;-4.456;2023-03-23T16:57:38;13.33;78.64
74178;DHT22;62540;48.456;-4.456;2023-03-23T17:00:08;13.26;78.44
74178;DHT22;62540;48.456;-4.456;2023-03-23T17:02:35;13.24;78.51
74178;DHT22;62540;48.456;-4.456;2023-03-23T17:05:00;13.20;78.68